Time;durP1;ratioP1;P1;durP2;ratioP2;P2;SDS_P1;SDS_P2;PMS_P1;PMS_P2;Temp;Humidity;BMP_temperature;BMP_pressure;BME280_temperature;BME280_humidity;BME280_pressure;Samples;Min_cycle;Max_cycle;Signal;HPM_P1;HPM_P2
2023/06/19 00:01:56;;;;;;;7.90;7.40;;;24.10;85.30;;;;;;4954340;28;20822;-62
2023/06/19 00:04:22;;;;;;;8.37;7.77;;;24.10;86.00;;;;;;4953619;29;20213;-62
2023/06/19 00:06:48;;;;;;;7.23;6.73;;;24.10;86.70;;;;;;4954208;29;20755;-63
2023/06/19 00:09:14;;;;;;;8.03;7.43;;;24.10;87.20;;;;;;4953735;28;20169;-62
2023/06/19 00:11:40;;;;;;;7.90;7.30;;;24.10;87.60;;;;;;4954342;28;20500;-62
2023/06/19 00:14:08;;;;;;;8.30;7.70;;;24.10;87.90;;;;;;4954227;28;20519;-63
2023/06/19 00:16:34;;;;;;;8.17;7.63;;;24.00;88.30;;;;;;4953864;28;20636;-62
2023/06/19 00:19:03;;;;;;;8.10;7.50;;;24.10;88.20;;;;;;4954378;28;20405;-63
2023/06/19 00:21:29;;;;;;;6.70;6.30;;;24.10;88.50;;;;;;4956350;28;20603;-62
2023/06/19 00:23:55;;;;;;;7.13;6.67;;;24.00;88.60;;;;;;4957708;29;20460;-63
2023/06/19 00:26:25;;;;;;;8.00;7.40;;;24.00;89.00;;;;;;4957482;29;20450;-62
2023/06/19 00:28:51;;;;;;;7.60;7.10;;;24.00;89.20;;;;;;4957775;28;20409;-62
2023/06/19 00:31:18;;;;;;;8.10;7.50;;;24.10;89.20;;;;;;4957091;29;20412;-62
2023/06/19 00:33:45;;;;;;;8.17;7.57;;;24.10;89.10;;;;;;4957592;28;20423;-62
2023/06/19 00:36:12;;;;;;;8.37;7.77;;;24.10;89.20;;;;;;4956700;28;20948;-61
2023/06/19 00:38:39;;;;;;;8.30;7.70;;;24.10;89.70;;;;;;4957647;29;20409;-62
2023/06/19 00:41:05;;;;;;;8.57;7.97;;;24.10;90.20;;;;;;4957374;29;20423;-63
2023/06/19 00:43:32;;;;;;;8.63;7.83;;;24.20;90.70;;;;;;4956816;29;20544;-63
2023/06/19 00:45:59;;;;;;;8.00;7.40;;;24.20;91.20;;;;;;4956930;28;20463;-63
2023/06/19 00:48:27;;;;;;;9.00;8.40;;;24.20;91.50;;;;;;4956768;28;20924;-63
2023/06/19 00:50:53;;;;;;;8.73;8.10;;;24.20;91.90;;;;;;4957666;28;20417;-62
2023/06/19 00:53:19;;;;;;;8.10;7.50;;;24.10;91.60;;;;;;4956613;29;20788;-63
2023/06/19 00:55:47;;;;;;;7.57;6.97;;;24.10;92.20;;;;;;4957513;28;20259;-63
2023/06/19 00:58:13;;;;;;;8.87;8.17;;;24.10;92.50;;;;;;4956604;28;20476;-62
2023/06/19 01:00:39;;;;;;;7.53;6.93;;;24.00;92.90;;;;;;4957169;29;20767;-63
2023/06/19 01:03:04;;;;;;;8.60;8.00;;;24.00;92.90;;;;;;4957104;29;20213;-63
2023/06/19 01:05:30;;;;;;;8.10;7.60;;;23.90;93.20;;;;;;4956476;28;20185;-63
2023/06/19 01:08:19;;;;;;;8.03;7.43;;;23.90;93.50;;;;;;4957034;29;20177;-62
2023/06/19 01:10:54;;;;;;;8.40;7.70;;;23.90;93.50;;;;;;4955822;29;20577;-62
2023/06/19 01:13:24;;;;;;;8.27;7.77;;;23.80;93.40;;;;;;4956466;28;20409;-63
2023/06/19 01:15:50;;;;;;;8.13;7.53;;;23.80;93.60;;;;;;4957003;28;20448;-63
2023/06/19 01:18:17;;;;;;;8.37;7.77;;;23.80;93.80;;;;;;4956321;29;20433;-62
2023/06/19 01:20:43;;;;;;;7.70;7.20;;;23.70;93.90;;;;;;4939978;29;20417;-63
2023/06/19 01:23:11;;;;;;;8.90;8.20;;;23.70;93.90;;;;;;4956735;29;20527;-63
2023/06/19 01:25:37;;;;;;;8.20;7.67;;;23.70;94.10;;;;;;4956098;29;20470;-63
2023/06/19 01:28:09;;;;;;;7.80;7.20;;;23.70;93.70;;;;;;4956737;28;20474;-63
2023/06/19 01:30:36;;;;;;;8.00;7.30;;;23.70;94.50;;;;;;4955899;28;20440;-63
2023/06/19 01:33:06;;;;;;;8.67;8.00;;;23.70;94.30;;;;;;4956488;28;20428;-63
2023/06/19 01:35:38;;;;;;;8.43;7.83;;;23.70;95.30;;;;;;4955984;29;20893;-62
2023/06/19 01:38:05;;;;;;;8.03;7.53;;;23.70;95.00;;;;;;4956897;29;20496;-63
2023/06/19 01:40:32;;;;;;;9.03;8.33;;;23.70;95.50;;;;;;4955847;29;20901;-63
2023/06/19 01:43:00;;;;;;;8.20;7.60;;;23.60;92.50;;;;;;4956538;28;20467;-63
2023/06/19 01:45:28;;;;;;;8.23;7.67;;;23.50;91.50;;;;;;4955842;28;20953;-63
2023/06/19 01:47:55;;;;;;;8.07;7.50;;;23.50;91.50;;;;;;4955060;29;20775;-62
2023/06/19 01:50:24;;;;;;;9.30;8.60;;;23.40;91.30;;;;;;4954506;29;20758;-62
2023/06/19 01:52:50;;;;;;;8.63;7.87;;;23.30;91.40;;;;;;4956227;28;20424;-63
2023/06/19 01:55:16;;;;;;;9.00;8.40;;;23.30;91.30;;;;;;4955417;29;20916;-62
2023/06/19 01:57:42;;;;;;;9.20;8.60;;;23.40;91.40;;;;;;4956222;29;20413;-63
2023/06/19 02:00:10;;;;;;;8.73;8.13;;;23.50;91.00;;;;;;4956098;28;20973;-63
2023/06/19 02:02:36;;;;;;;8.90;8.17;;;23.50;90.80;;;;;;4955437;28;20291;-63
2023/06/19 02:05:02;;;;;;;8.90;8.30;;;23.60;90.50;;;;;;4956076;28;20413;-63
2023/06/19 02:07:28;;;;;;;8.63;8.03;;;23.50;90.70;;;;;;4955124;29;20411;-63
2023/06/19 02:09:54;;;;;;;8.90;8.20;;;23.60;90.60;;;;;;4955930;28;20409;-63
2023/06/19 02:12:19;;;;;;;9.10;8.50;;;23.70;91.20;;;;;;4955195;28;20637;-62
2023/06/19 02:14:45;;;;;;;9.10;8.43;;;23.80;91.40;;;;;;4955900;28;20188;-63
2023/06/19 02:17:11;;;;;;;8.60;8.00;;;23.80;91.10;;;;;;4955479;29;20248;-63
2023/06/19 02:19:37;;;;;;;8.33;7.63;;;23.70;90.50;;;;;;4954190;29;20200;-62
2023/06/19 02:22:02;;;;;;;8.20;7.60;;;23.70;91.00;;;;;;4955710;28;20173;-63
2023/06/19 02:24:28;;;;;;;9.40;8.70;;;23.80;91.20;;;;;;4955021;29;20230;-62
2023/06/19 02:26:54;;;;;;;8.50;7.90;;;23.80;90.90;;;;;;4955632;29;20185;-63
2023/06/19 02:29:20;;;;;;;8.90;8.20;;;23.80;90.60;;;;;;4955115;28;20527;-62
2023/06/19 02:31:46;;;;;;;8.80;8.20;;;23.90;90.90;;;;;;4955608;28;20231;-63
2023/06/19 02:34:11;;;;;;;8.67;8.07;;;23.90;91.00;;;;;;4955546;29;20182;-63
2023/06/19 02:36:37;;;;;;;8.70;8.10;;;23.90;90.70;;;;;;4954783;29;20373;-63
2023/06/19 02:39:06;;;;;;;9.23;8.57;;;23.90;91.20;;;;;;4955596;29;20633;-63
2023/06/19 02:41:32;;;;;;;8.87;8.27;;;23.90;91.40;;;;;;4954657;29;20622;-63
2023/06/19 02:43:58;;;;;;;9.40;8.70;;;23.90;91.50;;;;;;4954431;28;20492;-63
2023/06/19 02:46:24;;;;;;;9.70;9.00;;;23.90;90.60;;;;;;4954735;29;20500;-62
2023/06/19 02:48:50;;;;;;;9.33;8.60;;;23.90;90.30;;;;;;4955489;29;20173;-63
2023/06/19 02:51:15;;;;;;;9.27;8.67;;;23.80;90.40;;;;;;4955159;29;20184;-63
2023/06/19 02:53:41;;;;;;;10.37;9.67;;;23.80;88.60;;;;;;4954581;29;20173;-63
2023/06/19 02:56:07;;;;;;;10.10;9.40;;;23.90;85.80;;;;;;4955192;28;20259;-63
2023/06/19 02:58:34;;;;;;;10.90;10.10;;;23.90;85.20;;;;;;4954506;28;20915;-63
2023/06/19 03:01:00;;;;;;;9.87;9.27;;;23.90;84.20;;;;;;4954813;28;20455;-63
2023/06/19 03:03:26;;;;;;;9.90;9.10;;;23.90;83.80;;;;;;4954345;29;20444;-62
2023/06/19 03:05:51;;;;;;;10.93;10.13;;;23.90;84.00;;;;;;4955018;29;20424;-63
2023/06/19 03:08:17;;;;;;;9.97;9.27;;;23.90;83.90;;;;;;4953775;29;20181;-63
2023/06/19 03:10:43;;;;;;;11.43;9.90;;;24.00;83.90;;;;;;4954279;28;20263;-62
2023/06/19 03:13:09;;;;;;;10.80;10.00;;;24.00;83.70;;;;;;4954840;29;20185;-63
2023/06/19 03:15:34;;;;;;;10.40;9.50;;;24.00;83.60;;;;;;4953900;28;20197;-63
2023/06/19 03:18:04;;;;;;;9.90;9.20;;;24.00;83.60;;;;;;4954803;28;20255;-63
2023/06/19 03:20:30;;;;;;;11.30;10.50;;;24.00;83.40;;;;;;4954203;28;20173;-62
2023/06/19 03:22:55;;;;;;;9.87;9.17;;;24.00;83.70;;;;;;4954659;29;20453;-63
2023/06/19 03:25:21;;;;;;;9.40;8.70;;;24.00;83.90;;;;;;4954184;29;20177;-62
2023/06/19 03:27:47;;;;;;;8.90;8.10;;;24.10;84.50;;;;;;4954760;29;20176;-63
2023/06/19 03:30:12;;;;;;;8.67;8.07;;;24.00;85.10;;;;;;4954651;28;20267;-63
2023/06/19 03:32:38;;;;;;;10.03;9.30;;;24.00;85.80;;;;;;4954028;28;20559;-62
2023/06/19 03:35:05;;;;;;;9.13;8.43;;;24.00;85.90;;;;;;4954898;29;20177;-63
2023/06/19 03:37:32;;;;;;;8.63;7.93;;;24.00;86.30;;;;;;4953948;28;20527;-63
2023/06/19 03:39:58;;;;;;;8.87;8.17;;;24.00;86.70;;;;;;4954295;28;20404;-63
2023/06/19 03:42:24;;;;;;;8.97;8.27;;;24.00;87.30;;;;;;4954101;29;20415;-62
2023/06/19 03:44:49;;;;;;;9.80;8.90;;;24.00;87.60;;;;;;4954495;29;20245;-63
2023/06/19 03:47:16;;;;;;;8.60;7.97;;;24.00;87.40;;;;;;4954443;29;20291;-63
2023/06/19 03:49:42;;;;;;;9.13;8.43;;;23.90;88.10;;;;;;4954129;28;20185;-63
2023/06/19 03:52:07;;;;;;;8.17;7.47;;;23.90;88.40;;;;;;4954193;29;20468;-63
2023/06/19 03:54:33;;;;;;;10.83;10.13;;;23.90;88.70;;;;;;4955344;28;20185;-63
2023/06/19 03:56:59;;;;;;;9.70;9.00;;;23.90;88.80;;;;;;4958326;29;20264;-63
2023/06/19 03:59:25;;;;;;;7.30;6.57;;;23.90;89.10;;;;;;4957755;29;20181;-62
2023/06/19 04:01:51;;;;;;;7.70;7.10;;;23.90;89.60;;;;;;4958035;28;20248;-63
2023/06/19 04:04:17;;;;;;;8.00;7.47;;;23.90;90.10;;;;;;4958244;29;20562;-63
2023/06/19 04:06:42;;;;;;;7.10;6.50;;;23.90;90.40;;;;;;4957661;28;20610;-63
2023/06/19 04:09:08;;;;;;;6.90;6.40;;;23.80;90.60;;;;;;4958172;29;20177;-63
2023/06/19 04:11:34;;;;;;;9.60;8.80;;;23.80;91.00;;;;;;4957574;28;20177;-62
2023/06/19 04:14:02;;;;;;;8.03;7.40;;;23.80;91.20;;;;;;4958084;29;20440;-63
2023/06/19 04:16:28;;;;;;;5.83;5.33;;;23.80;91.40;;;;;;4957448;28;20166;-63
2023/06/19 04:18:54;;;;;;;6.90;6.40;;;23.80;91.60;;;;;;4957962;29;20911;-63
2023/06/19 04:21:19;;;;;;;7.10;6.70;;;23.70;92.10;;;;;;4957929;29;20173;-63
2023/06/19 04:23:45;;;;;;;6.70;6.30;;;23.50;92.70;;;;;;4957246;28;20201;-63
2023/06/19 04:26:11;;;;;;;6.60;6.10;;;23.50;93.20;;;;;;4957744;29;20173;-63
2023/06/19 04:28:36;;;;;;;8.20;7.60;;;23.50;93.50;;;;;;4956006;29;20189;-63
2023/06/19 04:31:02;;;;;;;7.50;6.60;;;23.50;93.80;;;;;;4957678;29;20187;-63
2023/06/19 04:33:29;;;;;;;8.53;8.00;;;23.40;94.20;;;;;;4957160;29;20192;-62
2023/06/19 04:35:55;;;;;;;5.63;5.20;;;23.40;94.60;;;;;;4957737;28;20176;-62
2023/06/19 04:38:23;;;;;;;6.67;6.07;;;23.30;94.90;;;;;;4957385;28;20413;-63
2023/06/19 04:40:52;;;;;;;8.30;7.80;;;23.30;95.20;;;;;;4956922;28;20436;-63
2023/06/19 04:43:18;;;;;;;6.50;6.10;;;23.30;95.50;;;;;;4957436;28;20813;-63
2023/06/19 04:45:44;;;;;;;8.10;7.60;;;23.20;95.70;;;;;;4957121;28;20453;-63
2023/06/19 04:48:10;;;;;;;7.70;6.97;;;23.20;96.20;;;;;;4957242;29;20204;-63
2023/06/19 04:50:35;;;;;;;8.63;7.93;;;23.20;96.20;;;;;;4956768;29;20408;-63
2023/06/19 04:53:01;;;;;;;7.57;7.07;;;23.20;96.30;;;;;;4957633;28;20208;-63
2023/06/19 04:55:27;;;;;;;6.30;5.80;;;23.20;96.50;;;;;;4956654;28;20185;-62
2023/06/19 04:57:53;;;;;;;7.33;6.73;;;23.30;96.70;;;;;;4957318;28;20280;-63
2023/06/19 05:00:19;;;;;;;6.67;6.10;;;23.20;96.60;;;;;;4957505;29;20617;-63
2023/06/19 05:02:47;;;;;;;6.60;6.00;;;23.30;96.80;;;;;;4956495;28;20722;-63
2023/06/19 05:05:13;;;;;;;6.07;5.57;;;23.20;97.30;;;;;;4957057;28;20401;-63
2023/06/19 05:07:39;;;;;;;7.60;7.00;;;23.20;97.50;;;;;;4955928;29;20412;-63
2023/06/19 05:10:06;;;;;;;6.70;6.20;;;23.20;97.50;;;;;;4957007;28;20780;-63
2023/06/19 05:12:33;;;;;;;6.70;6.20;;;23.20;97.80;;;;;;4956532;28;20421;-63
2023/06/19 05:14:59;;;;;;;6.97;6.40;;;23.10;97.90;;;;;;4957160;28;20597;-63
2023/06/19 05:17:25;;;;;;;8.03;7.33;;;23.10;98.00;;;;;;4956898;29;20492;-63
2023/06/19 05:19:50;;;;;;;6.53;6.07;;;23.10;98.30;;;;;;4956258;29;20184;-63
2023/06/19 05:22:18;;;;;;;5.67;5.27;;;23.20;98.50;;;;;;4956722;29;20177;-63
2023/06/19 05:24:44;;;;;;;7.13;6.50;;;23.10;98.60;;;;;;4955828;29;20189;-63
2023/06/19 05:27:10;;;;;;;8.83;8.00;;;23.10;98.90;;;;;;4956620;28;20444;-63
2023/06/19 05:29:36;;;;;;;4.97;4.67;;;23.10;99.00;;;;;;4956076;29;20495;-62
2023/06/19 05:32:02;;;;;;;5.50;5.10;;;23.00;99.40;;;;;;4956751;29;20280;-63
2023/06/19 05:34:28;;;;;;;8.50;8.00;;;23.10;99.50;;;;;;4956151;28;20637;-63
2023/06/19 05:37:03;;;;;;;8.10;7.50;;;23.10;99.70;;;;;;4955501;29;20416;-63
2023/06/19 05:39:29;;;;;;;7.03;6.63;;;23.20;99.90;;;;;;4956012;28;20165;-61
2023/06/19 05:41:55;;;;;;;7.60;7.10;;;23.10;99.80;;;;;;4956259;28;20423;-63
2023/06/19 05:44:20;;;;;;;5.97;5.33;;;23.10;99.90;;;;;;4956154;29;20476;-63
2023/06/19 05:46:46;;;;;;;5.17;4.87;;;23.20;99.90;;;;;;4955873;29;20165;-62
2023/06/19 05:49:12;;;;;;;6.00;5.60;;;23.10;99.90;;;;;;4956376;29;20300;-63
2023/06/19 05:51:37;;;;;;;6.00;5.60;;;23.20;99.90;;;;;;4955457;29;20252;-62
2023/06/19 05:54:03;;;;;;;5.40;4.90;;;23.20;99.90;;;;;;4955886;28;20213;-63
2023/06/19 05:56:33;;;;;;;5.60;5.20;;;23.20;99.90;;;;;;4955781;28;20626;-61
2023/06/19 05:59:02;;;;;;;7.20;6.70;;;23.20;99.90;;;;;;4956396;28;20181;-63
2023/06/19 06:01:29;;;;;;;10.07;9.27;;;23.20;99.80;;;;;;4956070;29;20948;-63
2023/06/19 06:03:57;;;;;;;5.60;5.10;;;23.20;99.90;;;;;;4955746;29;20452;-63
2023/06/19 06:06:24;;;;;;;4.87;4.57;;;23.20;99.90;;;;;;4955656;29;20927;-63
2023/06/19 06:08:51;;;;;;;5.10;4.77;;;23.10;99.80;;;;;;4955116;28;20416;-63
2023/06/19 06:11:17;;;;;;;5.23;4.43;;;23.20;99.90;;;;;;4956063;28;20495;-64
2023/06/19 06:13:43;;;;;;;4.77;4.37;;;23.20;99.90;;;;;;4955299;29;20429;-63
2023/06/19 06:16:08;;;;;;;4.63;4.23;;;23.30;99.90;;;;;;4954583;29;21027;-63
2023/06/19 06:18:34;;;;;;;4.87;4.50;;;23.30;99.90;;;;;;4954275;28;20181;-63
2023/06/19 06:21:00;;;;;;;4.30;4.10;;;23.30;99.90;;;;;;4955866;28;20256;-63
2023/06/19 06:23:26;;;;;;;4.80;4.40;;;23.40;99.90;;;;;;4955575;28;20216;-63
2023/06/19 06:25:51;;;;;;;5.87;5.57;;;23.40;99.90;;;;;;4954973;29;20525;-63
2023/06/19 06:28:17;;;;;;;4.63;4.23;;;23.50;99.90;;;;;;4955249;29;20169;-63
2023/06/19 06:30:43;;;;;;;4.33;4.00;;;23.50;99.90;;;;;;4954708;29;20176;-62
2023/06/19 06:33:09;;;;;;;4.07;3.77;;;23.50;99.60;;;;;;4955192;29;20656;-63
2023/06/19 06:35:35;;;;;;;5.13;4.63;;;23.60;99.50;;;;;;4954917;29;20429;-63
2023/06/19 06:38:04;;;;;;;4.60;4.40;;;23.50;99.40;;;;;;4955388;28;20441;-63
2023/06/19 06:40:38;;;;;;;3.70;3.40;;;23.40;99.20;;;;;;5109780;27;21008;-60
2023/06/19 06:43:04;;;;;;;5.50;5.20;;;23.40;99.30;;;;;;5090443;28;20420;-60
2023/06/19 06:45:29;;;;;;;4.60;4.30;;;23.50;99.20;;;;;;5090142;28;20187;-60
2023/06/19 06:47:55;;;;;;;4.47;4.20;;;23.40;99.00;;;;;;5089465;28;20521;-60
2023/06/19 06:50:21;;;;;;;6.57;6.07;;;23.40;99.30;;;;;;5089664;28;20214;-61
2023/06/19 06:52:47;;;;;;;6.30;5.90;;;23.50;99.30;;;;;;5089328;28;20544;-60
2023/06/19 06:55:12;;;;;;;5.10;4.70;;;23.30;99.10;;;;;;5089890;28;20176;-62
2023/06/19 06:57:38;;;;;;;5.23;4.73;;;23.30;98.90;;;;;;5089264;28;20187;-62
2023/06/19 07:00:05;;;;;;;4.87;4.47;;;23.30;98.70;;;;;;5089731;28;20195;-62
2023/06/19 07:02:31;;;;;;;4.73;4.43;;;23.30;99.10;;;;;;5089604;28;20180;-62
2023/06/19 07:04:57;;;;;;;4.50;4.20;;;23.30;98.80;;;;;;5089124;28;20398;-62
2023/06/19 07:07:22;;;;;;;6.00;5.60;;;23.40;98.80;;;;;;5089739;28;20601;-62
2023/06/19 07:09:48;;;;;;;5.30;5.00;;;23.50;98.80;;;;;;5089495;28;20247;-62
2023/06/19 07:12:14;;;;;;;5.30;5.10;;;23.60;98.50;;;;;;5089751;28;20518;-63
2023/06/19 07:14:40;;;;;;;5.03;4.63;;;23.70;98.30;;;;;;5088661;28;20486;-62
2023/06/19 07:17:07;;;;;;;5.00;4.70;;;23.80;99.30;;;;;;5089552;28;20243;-62
2023/06/19 07:19:32;;;;;;;6.17;5.87;;;24.00;98.00;;;;;;5089144;28;20205;-63
2023/06/19 07:21:59;;;;;;;4.87;4.63;;;24.00;98.20;;;;;;5070877;28;20404;-63
2023/06/19 07:24:25;;;;;;;6.17;5.87;;;24.10;97.00;;;;;;5089375;28;20194;-62
2023/06/19 07:26:51;;;;;;;4.20;4.00;;;24.10;97.10;;;;;;5088820;28;20403;-62
2023/06/19 07:29:16;;;;;;;6.10;5.80;;;24.10;96.90;;;;;;5089424;28;20639;-62
2023/06/19 07:31:42;;;;;;;5.47;5.23;;;24.10;96.70;;;;;;5088993;28;20589;-62
2023/06/19 07:34:08;;;;;;;4.23;4.03;;;24.20;97.00;;;;;;5089509;28;20514;-63
2023/06/19 07:36:34;;;;;;;6.13;5.80;;;24.30;97.10;;;;;;5089123;28;20395;-63
2023/06/19 07:39:00;;;;;;;5.17;4.70;;;24.20;96.30;;;;;;5081419;28;20815;-62
2023/06/19 07:41:25;;;;;;;4.50;4.30;;;24.10;96.60;;;;;;5050967;28;20184;-63
2023/06/19 07:43:51;;;;;;;5.03;4.60;;;24.20;97.40;;;;;;5068515;28;20169;-62
2023/06/19 07:46:17;;;;;;;4.30;4.10;;;24.20;97.00;;;;;;5050670;28;20177;-62
2023/06/19 07:48:43;;;;;;;4.90;4.70;;;24.20;96.90;;;;;;5068310;28;20227;-62
2023/06/19 07:51:08;;;;;;;4.80;4.50;;;24.30;97.40;;;;;;5059961;28;20173;-62
2023/06/19 07:53:34;;;;;;;4.97;4.57;;;24.30;96.50;;;;;;5037269;28;20177;-63
2023/06/19 07:56:00;;;;;;;7.03;6.53;;;24.20;97.10;;;;;;5054065;28;20169;-62
2023/06/19 07:58:25;;;;;;;4.93;4.60;;;24.20;97.10;;;;;;5055001;28;20181;-63
2023/06/19 08:00:51;;;;;;;6.13;5.60;;;24.30;97.10;;;;;;5037082;28;20180;-62
2023/06/19 08:03:17;;;;;;;5.23;4.73;;;24.30;97.40;;;;;;5055210;28;20174;-62
2023/06/19 08:05:43;;;;;;;4.57;4.27;;;24.30;97.00;;;;;;5054889;28;20169;-62
2023/06/19 08:08:08;;;;;;;3.90;3.60;;;24.30;96.80;;;;;;5037343;28;20200;-63
2023/06/19 08:10:34;;;;;;;5.17;4.80;;;24.30;97.30;;;;;;5054780;28;20204;-63
2023/06/19 08:13:00;;;;;;;5.30;5.00;;;24.30;97.40;;;;;;5054397;28;20169;-62
2023/06/19 08:15:26;;;;;;;4.73;4.50;;;24.30;97.10;;;;;;5054971;28;20170;-62
2023/06/19 08:17:52;;;;;;;4.00;3.80;;;24.30;97.10;;;;;;5036478;28;20525;-62
2023/06/19 08:20:19;;;;;;;4.77;4.57;;;24.30;97.70;;;;;;5054782;28;20531;-63
2023/06/19 08:22:45;;;;;;;4.37;4.17;;;24.30;97.70;;;;;;5054285;28;20170;-62
2023/06/19 08:25:11;;;;;;;4.80;4.60;;;24.30;96.50;;;;;;5054891;28;20403;-62
2023/06/19 08:27:37;;;;;;;5.20;5.00;;;24.30;96.50;;;;;;5054640;28;20268;-63
2023/06/19 08:30:03;;;;;;;4.30;4.00;;;24.30;97.20;;;;;;5053986;28;20506;-63
2023/06/19 08:32:29;;;;;;;5.90;5.60;;;24.30;98.00;;;;;;5036673;28;20170;-63
2023/06/19 08:34:54;;;;;;;5.70;5.40;;;24.30;97.30;;;;;;5054033;28;20545;-62
2023/06/19 08:37:20;;;;;;;4.40;4.10;;;24.30;97.20;;;;;;5054461;28;20524;-63
2023/06/19 08:39:46;;;;;;;6.00;5.63;;;24.30;97.30;;;;;;5053556;28;20236;-62
2023/06/19 08:42:12;;;;;;;5.10;4.70;;;24.30;97.50;;;;;;5036577;28;20174;-62
2023/06/19 08:44:38;;;;;;;5.40;5.10;;;24.30;97.80;;;;;;5054505;28;20170;-63
2023/06/19 08:47:04;;;;;;;6.83;6.47;;;24.30;97.70;;;;;;5053761;28;20418;-62
2023/06/19 08:49:33;;;;;;;5.87;5.57;;;24.30;97.70;;;;;;5054333;28;20189;-62
2023/06/19 08:51:59;;;;;;;5.10;4.80;;;24.30;97.60;;;;;;5053665;28;20407;-62
2023/06/19 08:54:25;;;;;;;6.10;5.77;;;24.30;97.70;;;;;;5054289;28;20407;-62
2023/06/19 08:56:53;;;;;;;6.53;6.03;;;24.30;98.00;;;;;;5053989;28;20408;-62
2023/06/19 08:59:20;;;;;;;5.40;5.10;;;24.30;97.40;;;;;;5053881;28;20448;-63
2023/06/19 09:01:54;;;;;;;4.67;4.37;;;24.30;97.30;;;;;;5052334;28;20396;-62
2023/06/19 09:04:24;;;;;;;6.90;6.60;;;24.10;97.40;;;;;;5053801;28;20449;-62
2023/06/19 09:06:57;;;;;;;4.40;4.10;;;24.10;97.70;;;;;;5053432;28;20409;-62
2023/06/19 09:09:24;;;;;;;5.17;4.37;;;24.10;98.00;;;;;;5054137;28;20416;-62
2023/06/19 09:12:08;;;;;;;5.40;5.07;;;24.10;98.00;;;;;;5053341;28;20416;-62
2023/06/19 09:14:42;;;;;;;3.87;3.63;;;24.10;98.60;;;;;;5053794;28;20419;-62
2023/06/19 09:17:19;;;;;;;5.83;5.50;;;24.20;99.00;;;;;;5053939;28;20380;-63
2023/06/19 09:19:49;;;;;;;5.07;4.67;;;24.30;98.70;;;;;;5053237;28;20777;-62
2023/06/19 09:22:18;;;;;;;4.53;4.33;;;24.30;98.80;;;;;;5053770;28;20411;-63
2023/06/19 09:24:47;;;;;;;6.03;5.07;;;24.40;98.80;;;;;;5052904;28;20393;-62
2023/06/19 09:27:17;;;;;;;4.87;4.47;;;24.60;99.10;;;;;;5053542;28;20402;-62
2023/06/19 09:29:45;;;;;;;5.83;5.50;;;24.80;99.00;;;;;;5053069;28;20389;-62
2023/06/19 09:32:21;;;;;;;6.30;5.90;;;25.00;98.60;;;;;;5053279;28;20404;-62
2023/06/19 09:34:49;;;;;;;6.00;4.83;;;25.20;98.00;;;;;;5052983;28;20392;-62
2023/06/19 09:37:15;;;;;;;4.00;3.80;;;25.30;96.80;;;;;;5053724;28;20872;-63
2023/06/19 09:39:42;;;;;;;4.03;3.73;;;25.50;96.60;;;;;;5052855;28;20480;-63
2023/06/19 09:42:08;;;;;;;3.97;3.67;;;25.60;95.70;;;;;;5053658;28;20454;-62
2023/06/19 09:44:41;;;;;;;5.13;4.83;;;25.80;95.30;;;;;;5053052;28;20405;-63
2023/06/19 09:47:20;;;;;;;5.07;4.40;;;26.00;94.90;;;;;;5052718;28;20389;-62
2023/06/19 09:49:53;;;;;;;7.40;6.80;;;26.00;94.10;;;;;;5052936;28;20393;-62
2023/06/19 09:52:22;;;;;;;7.00;6.30;;;26.20;94.10;;;;;;5052930;28;20892;-63
2023/06/19 09:54:49;;;;;;;5.67;5.30;;;26.30;94.00;;;;;;5052626;28;20457;-62
2023/06/19 09:57:15;;;;;;;6.30;5.83;;;26.40;92.60;;;;;;5052936;28;20438;-63
2023/06/19 09:59:42;;;;;;;4.30;4.00;;;26.40;92.50;;;;;;5052984;28;20440;-62
2023/06/19 10:02:10;;;;;;;4.47;4.17;;;26.40;93.00;;;;;;5052375;28;20412;-62
2023/06/19 10:04:54;;;;;;;4.93;4.63;;;26.50;92.00;;;;;;5052919;28;20411;-63
2023/06/19 10:07:32;;;;;;;4.63;4.20;;;26.60;91.80;;;;;;5052909;28;20751;-62
2023/06/19 10:10:07;;;;;;;4.60;4.30;;;26.60;91.70;;;;;;5051902;28;20502;-62
2023/06/19 10:12:44;;;;;;;7.00;6.57;;;26.70;91.30;;;;;;5035235;28;20759;-62
2023/06/19 10:15:20;;;;;;;6.20;5.70;;;26.60;90.80;;;;;;5052467;28;20411;-62
2023/06/19 10:17:51;;;;;;;5.00;4.70;;;26.50;90.70;;;;;;5034364;28;20427;-62
2023/06/19 10:20:33;;;;;;;5.47;5.17;;;26.40;91.30;;;;;;5052610;28;20485;-63
2023/06/19 10:23:03;;;;;;;6.80;6.13;;;26.30;90.80;;;;;;5052387;28;20856;-62
2023/06/19 10:25:31;;;;;;;6.57;6.03;;;26.20;90.80;;;;;;5052741;28;20832;-63
2023/06/19 10:27:58;;;;;;;6.47;6.07;;;26.20;90.80;;;;;;5052072;28;20917;-62
2023/06/19 10:30:24;;;;;;;6.03;5.53;;;26.20;90.90;;;;;;5052676;28;20479;-62
2023/06/19 10:32:50;;;;;;;5.33;4.90;;;26.20;91.70;;;;;;5052035;28;20404;-62
2023/06/19 10:35:17;;;;;;;6.80;6.40;;;26.20;92.10;;;;;;5052506;28;20396;-62
2023/06/19 10:37:44;;;;;;;6.43;5.93;;;26.10;91.20;;;;;;5052600;28;20675;-62
2023/06/19 10:40:12;;;;;;;6.63;6.23;;;26.10;90.90;;;;;;5051460;28;20514;-62
2023/06/19 10:42:39;;;;;;;6.50;6.00;;;26.20;92.10;;;;;;5034572;28;20408;-62
2023/06/19 10:45:10;;;;;;;7.73;7.17;;;26.30;91.50;;;;;;5050998;28;20835;-62
2023/06/19 10:47:38;;;;;;;6.07;5.67;;;26.50;91.00;;;;;;5052244;28;20950;-62
2023/06/19 10:50:09;;;;;;;6.37;5.87;;;26.80;91.20;;;;;;5051397;28;20392;-62
2023/06/19 10:52:35;;;;;;;7.13;6.53;;;27.00;90.50;;;;;;5052504;28;20392;-62
2023/06/19 10:55:03;;;;;;;7.00;6.40;;;27.30;89.10;;;;;;5051825;28;20449;-62
2023/06/19 10:57:31;;;;;;;6.70;6.20;;;27.40;88.80;;;;;;5052456;28;20477;-62
2023/06/19 10:59:58;;;;;;;6.20;5.80;;;27.50;87.20;;;;;;5051599;28;20452;-62
2023/06/19 11:02:25;;;;;;;8.07;7.57;;;27.70;85.60;;;;;;5052278;28;20465;-62
2023/06/19 11:04:54;;;;;;;9.60;8.87;;;27.70;85.40;;;;;;5051691;28;20725;-62
2023/06/19 11:07:22;;;;;;;6.27;5.90;;;27.90;84.80;;;;;;5052233;28;20497;-62
2023/06/19 11:09:49;;;;;;;6.47;6.07;;;28.10;83.00;;;;;;5052164;28;20507;-62
2023/06/19 11:12:21;;;;;;;7.20;6.70;;;28.30;82.70;;;;;;5052250;28;20400;-62
2023/06/19 11:14:50;;;;;;;7.00;6.60;;;28.40;82.60;;;;;;5052211;28;20415;-62
2023/06/19 11:17:20;;;;;;;6.33;5.93;;;28.60;83.90;;;;;;5001642;28;20495;-62
2023/06/19 11:19:46;;;;;;;5.50;5.20;;;28.70;82.30;;;;;;5052402;28;20802;-63
2023/06/19 11:22:12;;;;;;;6.77;6.17;;;28.90;81.00;;;;;;5051502;28;20404;-62
2023/06/19 11:24:44;;;;;;;7.03;6.47;;;29.00;81.30;;;;;;5052123;28;20173;-62
2023/06/19 11:27:18;;;;;;;7.00;6.60;;;29.00;79.30;;;;;;5054844;28;20173;-63
2023/06/19 11:29:44;;;;;;;7.23;6.63;;;29.00;76.60;;;;;;5055989;28;20855;-62
2023/06/19 11:32:14;;;;;;;6.50;6.10;;;28.90;78.30;;;;;;5037478;28;20408;-62
2023/06/19 11:34:40;;;;;;;7.17;6.67;;;28.80;78.50;;;;;;5055721;28;20161;-62
2023/06/19 11:37:17;;;;;;;8.30;6.47;;;28.80;77.40;;;;;;5055188;28;20396;-62
2023/06/19 11:39:47;;;;;;;8.00;7.30;;;28.80;77.70;;;;;;5055095;28;20479;-62
2023/06/19 11:42:19;;;;;;;7.90;7.40;;;28.70;77.00;;;;;;5054965;28;20792;-62
2023/06/19 11:45:02;;;;;;;7.20;6.70;;;28.70;76.30;;;;;;5055710;28;20412;-62
2023/06/19 11:47:31;;;;;;;6.63;6.17;;;28.60;75.50;;;;;;5037690;28;20407;-62
2023/06/19 11:49:58;;;;;;;6.67;6.17;;;28.40;76.10;;;;;;5054890;28;20537;-62
2023/06/19 11:52:23;;;;;;;7.00;6.47;;;28.30;77.10;;;;;;5055473;28;20435;-62
2023/06/19 11:54:49;;;;;;;5.73;5.33;;;28.10;77.50;;;;;;5055384;28;20823;-63
2023/06/19 11:57:15;;;;;;;6.37;5.97;;;28.00;78.00;;;;;;5054760;28;20170;-62
2023/06/19 11:59:41;;;;;;;6.80;6.30;;;27.90;79.40;;;;;;5055508;28;20213;-63
2023/06/19 12:02:08;;;;;;;8.50;6.60;;;28.00;79.60;;;;;;5054729;28;20169;-62
2023/06/19 12:04:34;;;;;;;14.17;13.03;;;28.00;80.10;;;;;;5055288;28;20401;-63
2023/06/19 12:07:01;;;;;;;7.77;7.10;;;28.20;79.60;;;;;;5054809;28;20405;-62
2023/06/19 12:09:29;;;;;;;6.60;6.00;;;28.30;78.90;;;;;;5055098;28;20412;-62
2023/06/19 12:11:56;;;;;;;6.97;6.40;;;28.40;77.10;;;;;;5054455;28;20400;-61
2023/06/19 12:14:21;;;;;;;7.63;7.03;;;28.50;78.40;;;;;;5055032;28;20404;-62
2023/06/19 12:16:47;;;;;;;6.00;5.60;;;28.60;79.00;;;;;;5054942;28;20392;-63
2023/06/19 12:19:13;;;;;;;6.07;5.67;;;28.70;77.80;;;;;;5054310;28;20216;-63
2023/06/19 12:21:39;;;;;;;6.13;5.73;;;28.80;77.10;;;;;;5054926;28;20566;-62
2023/06/19 12:24:06;;;;;;;6.03;5.63;;;28.70;78.10;;;;;;5036438;28;20396;-62
2023/06/19 12:26:37;;;;;;;5.77;5.40;;;28.80;75.90;;;;;;5054898;28;20204;-63
2023/06/19 12:29:03;;;;;;;7.63;7.03;;;28.70;75.30;;;;;;5054241;28;20738;-62
2023/06/19 12:31:29;;;;;;;7.60;6.57;;;28.60;74.90;;;;;;5054733;28;20796;-63
2023/06/19 12:33:55;;;;;;;6.60;6.20;;;28.50;75.70;;;;;;5053877;28;20776;-62
2023/06/19 12:36:21;;;;;;;7.13;6.63;;;28.40;76.30;;;;;;5036735;28;20439;-62
2023/06/19 12:38:48;;;;;;;6.10;5.60;;;28.40;74.60;;;;;;5054353;28;20275;-62
2023/06/19 12:41:15;;;;;;;6.40;6.00;;;28.40;74.30;;;;;;5053904;28;20162;-63
2023/06/19 12:43:41;;;;;;;6.33;5.83;;;28.40;72.40;;;;;;5054536;28;20404;-62
2023/06/19 12:46:07;;;;;;;6.90;6.40;;;28.30;74.70;;;;;;5053886;28;20405;-62